createdAt,value
2018-10-01T00:02:32.958Z,6.37
2018-10-01T00:12:34.252Z,7.03
2018-10-01T00:22:35.542Z,7.87
2018-10-01T00:32:36.857Z,6.17
2018-10-01T00:42:38.106Z,5.77
2018-10-01T00:52:39.390Z,5.87
2018-10-01T01:02:40.637Z,6.13
2018-10-01T01:12:41.911Z,6.17
2018-10-01T01:22:43.154Z,6.10
2018-10-01T01:32:44.414Z,7.07
2018-10-01T01:42:45.698Z,6.07
2018-10-01T01:52:46.959Z,6.13
2018-10-01T02:02:48.235Z,5.83
2018-10-01T02:12:49.492Z,5.93
2018-10-01T02:22:50.764Z,6.90
2018-10-01T02:32:52.021Z,5.80
2018-10-01T02:42:53.271Z,6.33
2018-10-01T02:52:54.544Z,5.60
2018-10-01T03:02:55.826Z,6.10
2018-10-01T03:12:57.069Z,6.33
2018-10-01T03:22:58.332Z,6.40
2018-10-01T03:32:59.589Z,6.07
2018-10-01T03:43:00.956Z,5.93
2018-10-01T03:53:02.226Z,18.77
2018-10-01T04:03:03.506Z,15.73
2018-10-01T04:13:04.792Z,6.40
2018-10-01T04:23:06.807Z,7.63
2018-10-01T04:33:08.042Z,8.20
2018-10-01T04:43:09.332Z,7.47
2018-10-01T04:53:10.575Z,7.33
2018-10-01T05:03:11.916Z,7.73
2018-10-01T05:13:13.198Z,7.83
2018-10-01T05:23:14.485Z,7.10
2018-10-01T05:33:15.745Z,7.80
2018-10-01T05:43:17.000Z,7.80
2018-10-01T05:53:18.270Z,8.77
2018-10-01T06:03:20.552Z,7.93
2018-10-01T06:13:21.811Z,7.73
2018-10-01T06:23:23.170Z,8.27
2018-10-01T06:33:24.439Z,9.13
2018-10-01T06:43:25.702Z,8.23
2018-10-01T06:53:27.078Z,6.97
2018-10-01T07:03:28.387Z,7.67
2018-10-01T07:13:29.673Z,8.03
2018-10-01T07:23:30.965Z,7.13
2018-10-01T07:33:32.288Z,7.83
2018-10-01T07:43:33.591Z,8.30
2018-10-01T07:53:34.951Z,7.33
2018-10-01T08:03:37.106Z,7.47
2018-10-01T08:13:38.394Z,7.07
2018-10-01T08:23:39.811Z,6.50
2018-10-01T08:33:41.022Z,6.53
2018-10-01T08:43:42.267Z,6.17
2018-10-01T08:53:43.554Z,4.73
2018-10-01T09:03:44.826Z,6.23
2018-10-01T09:13:46.119Z,5.40
2018-10-01T09:23:47.370Z,5.60
2018-10-01T09:33:48.632Z,5.85
2018-10-01T09:43:49.888Z,5.80
2018-10-01T09:53:51.231Z,5.70
2018-10-01T10:03:52.404Z,5.67
2018-10-01T10:13:53.651Z,5.67
2018-10-01T10:23:54.888Z,6.23
2018-10-01T10:33:56.916Z,5.37
2018-10-01T10:43:58.970Z,5.50
2018-10-01T10:54:00.205Z,6.20
2018-10-01T11:04:02.238Z,5.70
2018-10-01T11:14:03.602Z,5.87
2018-10-01T11:24:04.824Z,5.97
2018-10-01T11:34:06.879Z,6.03
2018-10-01T11:44:08.202Z,6.40
2018-10-01T11:54:09.530Z,6.00
2018-10-01T12:04:10.858Z,6.23
2018-10-01T12:14:12.035Z,6.77
2018-10-01T12:24:13.277Z,6.37
2018-10-01T12:34:14.524Z,6.90
2018-10-01T12:44:15.789Z,6.93
2018-10-01T12:54:17.092Z,7.13
2018-10-01T13:04:19.167Z,6.93
2018-10-01T13:14:20.446Z,9.27
2018-10-01T13:24:21.738Z,10.73
2018-10-01T13:34:23.035Z,10.60
2018-10-01T13:44:24.388Z,12.07
2018-10-01T13:54:25.632Z,11.50
2018-10-01T14:04:26.854Z,11.33
2018-10-01T14:14:28.115Z,13.77
2018-10-01T14:24:29.387Z,12.23
2018-10-01T14:34:30.707Z,14.03
2018-10-01T14:44:32.030Z,14.50
2018-10-01T14:54:33.352Z,14.17
2018-10-01T15:04:34.608Z,16.73
2018-10-01T15:24:42.555Z,13.03
2018-10-01T15:34:43.792Z,13.03
2018-10-01T15:44:45.191Z,15.70
2018-10-01T15:54:46.502Z,20.77
2018-10-01T16:04:47.784Z,17.20
2018-10-01T16:14:49.811Z,18.40
2018-10-01T16:24:52.080Z,19.77
2018-10-01T16:34:53.495Z,19.53
2018-10-01T16:44:55.341Z,18.83
2018-10-01T16:54:56.622Z,18.93
2018-10-01T17:04:57.898Z,19.10
2018-10-01T17:14:59.169Z,19.17
2018-10-01T17:25:00.430Z,20.80
2018-10-01T17:35:01.675Z,18.87
2018-10-01T17:45:02.948Z,18.87
2018-10-01T17:55:06.346Z,21.07
2018-10-01T18:05:07.637Z,23.47
2018-10-01T18:15:08.930Z,22.60
2018-10-01T18:25:10.260Z,21.73
2018-10-01T18:35:12.668Z,19.63
2018-10-01T18:45:14.009Z,16.77
2018-10-01T18:55:15.422Z,17.23
2018-10-01T19:05:17.528Z,13.73
2018-10-01T19:15:18.855Z,13.37
2018-10-01T19:25:20.125Z,14.10
2018-10-01T19:35:21.490Z,13.23
2018-10-01T19:45:22.844Z,12.83
2018-10-01T19:55:24.076Z,12.13
2018-10-01T20:05:25.407Z,11.47
2018-10-01T20:15:26.672Z,12.77
2018-10-01T20:25:27.962Z,13.33
2018-10-01T20:35:29.381Z,12.03
2018-10-01T20:45:31.611Z,8.60
2018-10-01T20:55:32.899Z,7.83
2018-10-01T21:05:34.190Z,9.83
2018-10-01T21:15:35.485Z,8.00
2018-10-01T21:25:36.802Z,8.43
2018-10-01T21:35:38.090Z,8.63
2018-10-01T21:45:39.413Z,10.30
2018-10-01T21:55:40.715Z,9.73
2018-10-01T22:05:42.009Z,11.00
2018-10-01T22:15:43.290Z,10.37
2018-10-01T22:25:44.601Z,9.87
2018-10-01T22:35:45.924Z,10.67
2018-10-01T22:45:47.239Z,9.47
2018-10-01T22:55:48.544Z,9.67
2018-10-01T23:05:49.854Z,9.77
2018-10-01T23:15:51.159Z,9.67
2018-10-01T23:25:52.444Z,8.63
2018-10-01T23:35:53.717Z,8.30
2018-10-01T23:45:55.005Z,8.70
2018-10-01T23:55:56.288Z,8.33
